Time;durP1;ratioP1;P1;durP2;ratioP2;P2;SDS_P1;SDS_P2;PMS_P1;PMS_P2;Temp;Humidity;BMP_temperature;BMP_pressure;BME280_temperature;BME280_humidity;BME280_pressure;Samples;Min_cycle;Max_cycle;Signal;HPM_P1;HPM_P2
2022/12/08 00:00:55;;;;;;;2.70;0.55;;;19.70;1.00;;;;;;4862143;29;20069;-42
2022/12/08 00:03:22;;;;;;;0.60;0.22;;;19.60;1.00;;;;;;4861936;29;20053;-41
2022/12/08 00:11:19;;;;;;;1.40;0.32;;;19.50;1.00;;;;;;4862021;29;20109;-40
2022/12/08 00:13:46;;;;;;;2.30;0.40;;;19.50;1.00;;;;;;4861647;29;20045;-39
2022/12/08 00:16:13;;;;;;;1.02;0.17;;;19.40;1.00;;;;;;4861858;29;20050;-41
2022/12/08 00:18:40;;;;;;;0.80;0.20;;;19.40;1.00;;;;;;4861865;29;20045;-39
2022/12/08 00:21:06;;;;;;;0.68;0.20;;;19.30;1.00;;;;;;4861901;29;20045;-39
2022/12/08 00:23:33;;;;;;;0.98;0.25;;;19.20;1.00;;;;;;4861428;29;20153;-39
2022/12/08 00:26:04;;;;;;;1.48;0.20;;;19.20;1.00;;;;;;4861595;29;20081;-40
2022/12/08 00:28:32;;;;;;;0.82;0.20;;;19.10;1.00;;;;;;4861637;29;20057;-39
2022/12/08 00:31:05;;;;;;;3.13;0.38;;;19.10;1.00;;;;;;4861642;29;20045;-39
2022/12/08 00:33:32;;;;;;;4.70;0.20;;;19.00;1.00;;;;;;4861239;29;20046;-40
2022/12/08 00:36:08;;;;;;;2.30;0.43;;;18.90;1.00;;;;;;4861236;29;20197;-40
2022/12/08 00:38:36;;;;;;;2.42;0.40;;;18.90;1.00;;;;;;4861493;29;20459;-40
2022/12/08 00:41:07;;;;;;;1.48;0.10;;;18.90;1.00;;;;;;4861352;29;20413;-40
2022/12/08 00:43:33;;;;;;;4.10;0.38;;;18.80;1.00;;;;;;4844663;29;20046;-40
2022/12/08 00:46:00;;;;;;;1.02;0.20;;;18.80;1.00;;;;;;4861207;29;20088;-40
2022/12/08 00:48:27;;;;;;;1.10;0.30;;;18.80;1.00;;;;;;4861319;29;20050;-39
2022/12/08 00:50:54;;;;;;;1.00;0.17;;;18.70;1.00;;;;;;4861198;29;20097;-40
2022/12/08 00:53:21;;;;;;;1.10;0.17;;;18.70;1.00;;;;;;4860803;29;20535;-40
2022/12/08 00:55:47;;;;;;;2.00;0.55;;;18.60;1.00;;;;;;4861110;29;20073;-39
2022/12/08 00:58:14;;;;;;;0.98;0.30;;;18.60;1.00;;;;;;4861041;29;20080;-39
2022/12/08 01:00:42;;;;;;;1.20;0.35;;;18.50;1.00;;;;;;4861012;29;20501;-40
2022/12/08 01:03:10;;;;;;;3.42;0.63;;;18.50;1.00;;;;;;4860959;29;20477;-40
2022/12/08 01:05:36;;;;;;;1.35;0.35;;;18.50;1.00;;;;;;4860933;29;20053;-40
2022/12/08 01:08:07;;;;;;;1.75;0.40;;;18.40;1.00;;;;;;4861006;29;20073;-39
2022/12/08 01:10:36;;;;;;;1.30;0.25;;;18.40;1.00;;;;;;4860918;29;20042;-40
2022/12/08 01:13:03;;;;;;;1.02;0.68;;;18.30;1.00;;;;;;4860347;29;20486;-39
2022/12/08 01:15:30;;;;;;;2.58;0.20;;;18.30;1.00;;;;;;4860758;29;20381;-40
2022/12/08 01:17:57;;;;;;;1.75;0.40;;;18.20;1.00;;;;;;4844107;29;20421;-40
2022/12/08 01:20:23;;;;;;;1.02;0.10;;;18.20;1.00;;;;;;4860777;29;20117;-39
2022/12/08 01:22:50;;;;;;;0.70;0.25;;;18.20;1.00;;;;;;4860417;29;20081;-40
2022/12/08 01:25:17;;;;;;;0.80;0.30;;;18.10;1.00;;;;;;4860404;29;20049;-39
2022/12/08 01:27:44;;;;;;;1.38;0.22;;;18.10;1.00;;;;;;4860537;29;20140;-39
2022/12/08 01:30:12;;;;;;;3.70;0.40;;;18.00;1.00;;;;;;4860597;29;20061;-39
2022/12/08 01:32:38;;;;;;;2.47;0.30;;;18.00;1.00;;;;;;4860222;29;20526;-39
2022/12/08 01:35:05;;;;;;;0.80;0.20;;;17.90;1.00;;;;;;4860496;29;20516;-40
2022/12/08 01:37:32;;;;;;;1.20;0.20;;;17.90;1.00;;;;;;4851595;29;20050;-40
2022/12/08 01:39:59;;;;;;;3.85;0.40;;;17.90;1.00;;;;;;4841826;29;20050;-40
2022/12/08 01:42:25;;;;;;;1.40;0.20;;;17.80;1.00;;;;;;4842169;29;20407;-40
2022/12/08 01:44:56;;;;;;;1.17;0.30;;;17.80;1.00;;;;;;4841634;29;20117;-40
2022/12/08 01:47:27;;;;;;;1.92;0.28;;;17.80;1.00;;;;;;4841850;29;20467;-40
2022/12/08 01:49:54;;;;;;;0.57;0.20;;;17.70;1.00;;;;;;4841592;29;20060;-39
2022/12/08 01:52:32;;;;;;;4.53;0.40;;;17.70;1.00;;;;;;4841479;29;20046;-39
2022/12/08 01:55:07;;;;;;;4.50;0.30;;;17.60;1.00;;;;;;4841562;29;20150;-40
2022/12/08 01:57:43;;;;;;;1.95;0.30;;;17.60;1.00;;;;;;4841763;29;20056;-40
2022/12/08 02:00:13;;;;;;;0.50;0.20;;;17.60;1.00;;;;;;4841657;29;20080;-39
2022/12/08 02:02:59;;;;;;;0.55;0.30;;;17.50;1.00;;;;;;4841333;29;20074;-39
2022/12/08 02:05:32;;;;;;;1.52;0.35;;;17.50;1.00;;;;;;4841560;29;20102;-40
2022/12/08 02:08:03;;;;;;;0.70;0.30;;;17.40;1.00;;;;;;4841758;29;20053;-40
2022/12/08 02:10:33;;;;;;;1.83;0.38;;;17.40;1.00;;;;;;4841568;29;20054;-39
2022/12/08 02:13:01;;;;;;;1.23;0.15;;;17.40;1.00;;;;;;4841176;29;20279;-40
2022/12/08 02:15:36;;;;;;;2.60;0.30;;;17.30;1.00;;;;;;4841301;29;20046;-39
2022/12/08 02:18:34;;;;;;;0.90;0.30;;;17.30;1.00;;;;;;4841469;29;20046;-39
2022/12/08 02:21:15;;;;;;;1.75;0.40;;;17.30;1.00;;;;;;4838756;29;20137;-40
2022/12/08 02:24:08;;;;;;;1.88;0.30;;;17.20;1.00;;;;;;4840899;29;20049;-39
2022/12/08 02:26:53;;;;;;;1.45;0.40;;;17.20;1.00;;;;;;4841369;29;20054;-40
2022/12/08 02:29:53;;;;;;;2.10;0.38;;;17.20;1.00;;;;;;4841213;29;20050;-38
2022/12/08 02:32:38;;;;;;;1.02;0.20;;;17.10;1.00;;;;;;4841017;29;20137;-38
2022/12/08 02:35:11;;;;;;;0.82;0.20;;;17.10;1.00;;;;;;4841129;29;20065;-38
2022/12/08 02:37:48;;;;;;;3.00;0.30;;;17.10;1.00;;;;;;4841219;29;20101;-39
2022/12/08 02:40:27;;;;;;;2.38;0.20;;;17.00;1.00;;;;;;4841084;29;20050;-39
2022/12/08 02:43:02;;;;;;;1.85;0.45;;;17.00;1.00;;;;;;4840932;29;20046;-39
2022/12/08 02:46:04;;;;;;;0.65;0.20;;;17.00;1.00;;;;;;4841006;29;20046;-39
2022/12/08 02:48:32;;;;;;;0.45;0.43;;;17.00;1.00;;;;;;4841109;29;20511;-38
2022/12/08 02:50:59;;;;;;;1.05;0.20;;;16.90;1.00;;;;;;4841040;29;20046;-39
2022/12/08 02:53:30;;;;;;;3.65;0.98;;;16.90;1.00;;;;;;4824312;29;20383;-39
2022/12/08 02:56:07;;;;;;;1.23;0.28;;;16.90;1.00;;;;;;4841020;29;20077;-39
2022/12/08 02:59:09;;;;;;;2.35;0.43;;;16.90;1.00;;;;;;4841004;29;20061;-39
2022/12/08 03:02:37;;;;;;;2.42;0.38;;;16.90;1.00;;;;;;4843786;29;20046;-39
2022/12/08 03:05:31;;;;;;;0.95;0.20;;;16.80;1.00;;;;;;4757388;29;20056;-39
2022/12/08 03:08:52;;;;;;;1.45;0.30;;;16.80;1.00;;;;;;4844689;29;20050;-39
2022/12/08 03:11:32;;;;;;;1.65;0.30;;;16.70;1.00;;;;;;4805817;29;20510;-39
2022/12/08 03:14:03;;;;;;;2.33;0.20;;;16.70;1.00;;;;;;4805454;29;20046;-40
2022/12/08 03:16:33;;;;;;;1.40;0.60;;;16.70;1.00;;;;;;4828919;29;20074;-39
2022/12/08 03:19:22;;;;;;;1.95;0.73;;;16.60;1.00;;;;;;4844537;29;20471;-39
2022/12/08 03:21:52;;;;;;;1.30;0.30;;;16.60;1.00;;;;;;4844383;29;20110;-40
2022/12/08 03:24:21;;;;;;;0.95;0.28;;;16.60;1.00;;;;;;4843868;29;20418;-39
2022/12/08 03:27:01;;;;;;;4.25;0.52;;;16.60;1.00;;;;;;4844340;29;20050;-40
2022/12/08 03:29:29;;;;;;;0.60;0.30;;;16.60;1.00;;;;;;4844186;29;20050;-39
2022/12/08 03:32:16;;;;;;;1.77;0.20;;;16.60;1.00;;;;;;4844190;29;20133;-40
2022/12/08 03:34:47;;;;;;;2.28;0.28;;;16.50;1.00;;;;;;4843793;29;20050;-40
2022/12/08 03:37:14;;;;;;;1.00;0.47;;;16.50;1.00;;;;;;4844208;29;20524;-40
2022/12/08 03:39:40;;;;;;;0.68;0.15;;;16.50;1.00;;;;;;4844074;29;20186;-41
2022/12/08 03:42:07;;;;;;;1.67;0.22;;;16.50;1.00;;;;;;4844060;29;20046;-40
2022/12/08 03:44:34;;;;;;;1.13;0.20;;;16.40;1.00;;;;;;4827254;29;20506;-39
2022/12/08 03:47:01;;;;;;;2.72;0.20;;;16.40;1.00;;;;;;4843908;29;20114;-39
2022/12/08 03:49:28;;;;;;;1.38;0.22;;;16.40;1.00;;;;;;4843727;29;20122;-40
2022/12/08 03:51:54;;;;;;;2.63;0.50;;;16.40;1.00;;;;;;4843821;29;20069;-39
2022/12/08 03:54:22;;;;;;;0.45;0.15;;;16.40;1.00;;;;;;4843352;29;20046;-39
2022/12/08 03:56:49;;;;;;;2.92;0.40;;;16.30;1.00;;;;;;4843898;29;20554;-39
2022/12/08 03:59:16;;;;;;;1.40;0.20;;;16.30;1.00;;;;;;4843811;29;20586;-39
2022/12/08 04:01:43;;;;;;;1.40;0.30;;;16.30;1.00;;;;;;4843579;29;20048;-39
2022/12/08 04:04:10;;;;;;;1.17;0.20;;;16.30;1.00;;;;;;4843405;29;20116;-39
2022/12/08 04:06:37;;;;;;;3.03;0.47;;;16.20;1.00;;;;;;4827058;29;20046;-39
2022/12/08 04:09:03;;;;;;;0.50;0.20;;;16.20;1.00;;;;;;4843544;29;20045;-39
2022/12/08 04:11:30;;;;;;;0.80;0.10;;;16.20;1.00;;;;;;4842952;29;20092;-39
2022/12/08 04:13:57;;;;;;;0.45;0.10;;;16.20;1.00;;;;;;4843374;29;20098;-39
2022/12/08 04:16:26;;;;;;;0.80;0.20;;;16.20;1.00;;;;;;4843145;29;20080;-39
2022/12/08 04:18:53;;;;;;;0.93;0.30;;;16.10;1.00;;;;;;4843645;29;20049;-40
2022/12/08 04:21:20;;;;;;;0.30;0.10;;;16.10;1.00;;;;;;4843336;29;20495;-40
2022/12/08 04:23:47;;;;;;;1.58;0.32;;;16.10;1.00;;;;;;4843028;29;20073;-40
2022/12/08 04:26:14;;;;;;;2.42;0.57;;;16.10;1.00;;;;;;4843133;29;20637;-40
2022/12/08 04:28:42;;;;;;;0.60;0.10;;;16.10;1.00;;;;;;4843095;29;20046;-39
2022/12/08 04:31:08;;;;;;;1.45;0.32;;;16.10;1.00;;;;;;4843239;29;20158;-40
2022/12/08 04:33:35;;;;;;;1.27;0.30;;;16.00;1.00;;;;;;4842857;29;20053;-39
2022/12/08 04:36:04;;;;;;;1.80;0.20;;;16.10;1.00;;;;;;4843004;29;20110;-39
2022/12/08 04:38:32;;;;;;;1.20;0.43;;;16.00;1.00;;;;;;4843008;29;20076;-39
2022/12/08 04:40:59;;;;;;;1.23;0.20;;;16.00;1.00;;;;;;4842955;29;20102;-38
2022/12/08 04:43:26;;;;;;;2.47;0.15;;;16.00;1.00;;;;;;4842644;29;20102;-39
2022/12/08 04:45:53;;;;;;;1.38;0.47;;;16.00;1.00;;;;;;4842934;29;20455;-39
2022/12/08 04:48:20;;;;;;;1.13;0.20;;;15.90;1.00;;;;;;4842892;29;20133;-39
2022/12/08 04:50:47;;;;;;;0.68;0.20;;;15.90;1.00;;;;;;4842773;29;20058;-38
2022/12/08 04:53:13;;;;;;;1.52;0.17;;;15.80;1.00;;;;;;4842450;29;20092;-38
2022/12/08 04:55:42;;;;;;;1.08;0.20;;;15.80;1.00;;;;;;4842568;29;20046;-38
2022/12/08 04:58:14;;;;;;;0.10;0.03;;;15.80;1.00;;;;;;4842727;29;20137;-39
2022/12/08 05:00:41;;;;;;;0.60;0.20;;;15.80;1.00;;;;;;4842679;29;20073;-39
2022/12/08 05:03:09;;;;;;;2.85;0.30;;;15.70;1.00;;;;;;4842307;29;20049;-39
2022/12/08 05:05:36;;;;;;;1.58;0.30;;;15.70;1.00;;;;;;4842466;29;20064;-39
2022/12/08 05:08:03;;;;;;;1.08;0.28;;;15.70;1.00;;;;;;4842589;29;20156;-39
2022/12/08 05:10:30;;;;;;;2.47;0.20;;;15.60;1.00;;;;;;4842372;29;20535;-38
2022/12/08 05:12:59;;;;;;;0.85;0.40;;;15.70;1.00;;;;;;4825685;29;20046;-39
2022/12/08 05:15:26;;;;;;;0.30;0.10;;;15.60;1.00;;;;;;4842283;29;20080;-39
2022/12/08 05:17:52;;;;;;;2.38;0.20;;;15.60;1.00;;;;;;4842452;29;20050;-38
2022/12/08 05:20:19;;;;;;;0.35;0.10;;;15.60;1.00;;;;;;4842222;29;20056;-39
2022/12/08 05:22:46;;;;;;;1.70;0.20;;;15.60;1.00;;;;;;4824952;29;20053;-39
2022/12/08 05:25:13;;;;;;;2.47;0.30;;;15.60;1.00;;;;;;4842021;29;20054;-39
2022/12/08 05:27:40;;;;;;;1.15;0.30;;;15.50;1.00;;;;;;4842220;29;20094;-39
2022/12/08 05:30:07;;;;;;;0.50;0.15;;;15.60;1.00;;;;;;4842013;29;20049;-38
2022/12/08 05:32:34;;;;;;;2.10;0.35;;;15.50;1.00;;;;;;4841884;29;20084;-38
2022/12/08 05:35:01;;;;;;;0.50;0.10;;;15.50;1.00;;;;;;4841906;29;20046;-39
2022/12/08 05:37:28;;;;;;;0.40;0.10;;;15.50;1.00;;;;;;4841979;29;20070;-39
2022/12/08 05:39:54;;;;;;;1.58;0.20;;;15.50;1.00;;;;;;4841876;29;20057;-39
2022/12/08 05:42:21;;;;;;;0.52;0.20;;;15.50;1.00;;;;;;4841844;29;20050;-38
2022/12/08 05:44:51;;;;;;;0.82;0.10;;;15.40;1.00;;;;;;4841637;29;20046;-39
2022/12/08 05:47:18;;;;;;;1.60;0.20;;;15.40;1.00;;;;;;4841808;29;20146;-39
2022/12/08 05:49:45;;;;;;;1.40;0.10;;;15.40;1.00;;;;;;4841901;29;20054;-39
2022/12/08 05:52:11;;;;;;;1.70;0.38;;;15.40;1.00;;;;;;4841569;29;20050;-39
2022/12/08 05:54:38;;;;;;;1.00;0.20;;;15.40;1.00;;;;;;4841431;29;20042;-39
2022/12/08 05:57:05;;;;;;;2.00;0.28;;;15.40;1.00;;;;;;4841657;29;20566;-38
2022/12/08 05:59:32;;;;;;;1.92;0.17;;;15.40;1.00;;;;;;4841705;29;20052;-38
2022/12/08 06:01:59;;;;;;;0.70;0.20;;;15.40;1.00;;;;;;4841456;29;20490;-39
2022/12/08 06:04:26;;;;;;;2.65;0.45;;;15.30;1.00;;;;;;4841305;29;20054;-39
2022/12/08 06:06:52;;;;;;;0.70;0.22;;;15.30;1.00;;;;;;4841532;29;20049;-39
2022/12/08 06:09:19;;;;;;;2.40;0.75;;;15.30;1.00;;;;;;4841665;29;20049;-39
2022/12/08 06:11:46;;;;;;;1.67;0.30;;;15.30;1.00;;;;;;4841401;29;20050;-39
2022/12/08 06:14:13;;;;;;;0.52;0.13;;;15.20;1.00;;;;;;4824903;29;20050;-39
2022/12/08 06:16:40;;;;;;;0.60;0.20;;;15.30;1.00;;;;;;4825029;29;20053;-39
2022/12/08 06:19:07;;;;;;;1.40;0.22;;;15.30;1.00;;;;;;4841354;29;20042;-39
2022/12/08 06:21:34;;;;;;;2.45;0.13;;;15.20;1.00;;;;;;4836863;29;20076;-39
2022/12/08 06:24:00;;;;;;;2.78;0.28;;;15.20;1.00;;;;;;4844098;29;20042;-39
2022/12/08 06:26:27;;;;;;;1.48;0.30;;;15.20;1.00;;;;;;4848817;29;20506;-39
2022/12/08 06:28:55;;;;;;;4.10;0.22;;;15.20;1.00;;;;;;4841245;29;20050;-39
2022/12/08 06:31:24;;;;;;;0.55;0.15;;;15.20;1.00;;;;;;4841371;29;20054;-39
2022/12/08 06:33:52;;;;;;;2.15;0.10;;;15.20;1.00;;;;;;4840651;29;20081;-39
2022/12/08 06:36:22;;;;;;;3.67;0.30;;;15.20;1.00;;;;;;4841116;29;20570;-40
2022/12/08 06:38:49;;;;;;;2.03;0.30;;;15.20;1.00;;;;;;4841232;29;20052;-38
2022/12/08 06:41:16;;;;;;;2.40;0.43;;;15.10;1.00;;;;;;4840496;29;20050;-39
2022/12/08 06:43:43;;;;;;;9.95;0.90;;;15.10;1.00;;;;;;4846245;29;20049;-39
2022/12/08 06:46:14;;;;;;;1.38;0.22;;;15.10;1.00;;;;;;4847641;29;20050;-39
2022/12/08 06:48:42;;;;;;;0.55;0.20;;;15.10;1.00;;;;;;4840373;29;20133;-39
2022/12/08 06:51:14;;;;;;;4.18;0.60;;;15.10;1.00;;;;;;4850753;29;20114;-39
2022/12/08 06:53:41;;;;;;;7.90;1.75;;;15.10;1.00;;;;;;4859167;29;20133;-39
2022/12/08 06:56:09;;;;;;;8.43;0.70;;;15.10;1.00;;;;;;4842949;29;20101;-39
2022/12/08 06:58:36;;;;;;;3.33;0.43;;;15.10;1.00;;;;;;4854465;29;20123;-39
2022/12/08 07:01:08;;;;;;;1.75;0.40;;;15.10;1.00;;;;;;4848710;29;20045;-39
2022/12/08 07:03:36;;;;;;;9.77;0.73;;;15.10;1.00;;;;;;4849835;29;20122;-39
2022/12/08 07:06:04;;;;;;;3.63;0.50;;;15.00;1.00;;;;;;4857988;29;20454;-40
2022/12/08 07:08:32;;;;;;;6.63;1.33;;;15.00;1.00;;;;;;4858155;29;20657;-40
2022/12/08 07:11:04;;;;;;;4.38;0.20;;;15.00;1.00;;;;;;4858147;29;20052;-40
2022/12/08 07:13:31;;;;;;;2.80;0.50;;;15.00;1.00;;;;;;4857837;29;20128;-40
2022/12/08 07:15:58;;;;;;;2.30;0.70;;;15.00;1.00;;;;;;4857760;29;20463;-39
2022/12/08 07:18:24;;;;;;;5.50;0.90;;;15.00;1.00;;;;;;4859403;29;20077;-39
2022/12/08 07:20:51;;;;;;;4.95;0.75;;;15.00;1.00;;;;;;4859493;29;20610;-39
2022/12/08 07:23:18;;;;;;;1.45;0.30;;;14.90;1.00;;;;;;4854566;29;20410;-40
2022/12/08 07:25:44;;;;;;;2.10;0.32;;;14.90;1.00;;;;;;4839392;29;20097;-39
2022/12/08 07:28:11;;;;;;;3.45;0.60;;;14.90;1.00;;;;;;4837895;29;20057;-39
2022/12/08 07:30:38;;;;;;;5.30;0.38;;;14.90;1.00;;;;;;4839174;29;20073;-39
2022/12/08 07:33:05;;;;;;;3.83;0.90;;;14.90;1.00;;;;;;4839325;29;20042;-40
2022/12/08 07:35:32;;;;;;;0.85;0.20;;;14.90;1.00;;;;;;4838984;29;20050;-39
2022/12/08 07:38:01;;;;;;;3.67;0.52;;;14.90;1.00;;;;;;4840287;29;20456;-39
2022/12/08 07:40:28;;;;;;;2.28;0.30;;;14.90;1.00;;;;;;4839895;29;20045;-39
2022/12/08 07:42:54;;;;;;;1.77;0.40;;;14.90;1.00;;;;;;4840297;29;20078;-39
2022/12/08 07:45:21;;;;;;;1.80;0.30;;;14.90;1.00;;;;;;4840442;29;20042;-40
2022/12/08 07:47:57;;;;;;;3.53;1.10;;;14.90;1.00;;;;;;4843592;29;20074;-39
2022/12/08 07:50:23;;;;;;;2.53;0.32;;;14.90;1.00;;;;;;4843868;29;20577;-39
2022/12/08 07:52:50;;;;;;;2.50;0.30;;;14.80;1.00;;;;;;4842015;29;20502;-40
2022/12/08 07:55:17;;;;;;;1.17;0.40;;;14.80;1.00;;;;;;4837927;29;20102;-39
2022/12/08 07:57:43;;;;;;;1.70;0.20;;;14.80;1.00;;;;;;4838311;29;20078;-39
2022/12/08 08:00:11;;;;;;;1.02;0.22;;;14.80;1.00;;;;;;4837487;29;20050;-39
2022/12/08 08:02:38;;;;;;;0.73;0.30;;;14.80;1.00;;;;;;4838985;29;20129;-39
2022/12/08 08:05:06;;;;;;;3.00;0.30;;;14.80;1.00;;;;;;4843519;29;20482;-39
2022/12/08 08:07:33;;;;;;;3.20;0.57;;;14.80;1.00;;;;;;4843432;29;20056;-39
2022/12/08 08:10:00;;;;;;;3.72;0.20;;;14.70;1.00;;;;;;4843571;29;20053;-40
2022/12/08 08:12:27;;;;;;;1.98;0.50;;;14.70;1.00;;;;;;4843467;29;20502;-39
2022/12/08 08:15:03;;;;;;;1.55;0.50;;;14.70;1.00;;;;;;4843287;29;20057;-40
2022/12/08 08:17:30;;;;;;;1.95;0.20;;;14.70;1.00;;;;;;4843313;29;20077;-39
2022/12/08 08:19:57;;;;;;;2.10;0.55;;;14.70;1.00;;;;;;4843365;29;20042;-39
2022/12/08 08:22:24;;;;;;;2.28;0.52;;;14.70;1.00;;;;;;4843054;29;20046;-39
2022/12/08 08:24:52;;;;;;;3.47;0.30;;;14.70;1.00;;;;;;4843120;29;20133;-39
2022/12/08 08:27:19;;;;;;;3.30;0.50;;;14.70;1.00;;;;;;4843116;29;20045;-39
2022/12/08 08:29:46;;;;;;;1.25;0.30;;;14.70;1.00;;;;;;4843263;29;20050;-40
2022/12/08 08:32:12;;;;;;;1.45;0.40;;;14.70;1.00;;;;;;4843163;29;20095;-40
2022/12/08 08:34:39;;;;;;;2.15;0.70;;;14.70;1.00;;;;;;4841608;29;20080;-39
2022/12/08 08:37:06;;;;;;;1.52;0.50;;;14.70;1.00;;;;;;4842954;29;20049;-40
2022/12/08 08:39:33;;;;;;;1.30;0.38;;;14.70;1.00;;;;;;4843324;29;20078;-39
2022/12/08 08:42:00;;;;;;;1.33;0.20;;;14.70;1.00;;;;;;4841621;29;20058;-39
2022/12/08 08:44:27;;;;;;;2.13;0.20;;;14.60;1.00;;;;;;4842903;29;20574;-39
2022/12/08 08:46:53;;;;;;;1.67;0.57;;;14.60;1.00;;;;;;4841738;29;20514;-39
2022/12/08 08:49:20;;;;;;;1.52;0.65;;;14.60;1.00;;;;;;4842850;29;20057;-40
2022/12/08 08:51:47;;;;;;;1.67;0.60;;;14.60;1.00;;;;;;4842747;29;20111;-39
2022/12/08 08:54:14;;;;;;;1.83;0.35;;;14.60;1.00;;;;;;4842347;29;20613;-40
2022/12/08 08:56:40;;;;;;;1.67;1.10;;;14.60;1.00;;;;;;4842666;29;20205;-39
2022/12/08 08:59:08;;;;;;;2.13;0.20;;;14.60;1.00;;;;;;4841429;29;20477;-39
2022/12/08 09:01:35;;;;;;;1.58;0.40;;;14.60;1.00;;;;;;4842559;29;20581;-39
2022/12/08 09:04:02;;;;;;;0.45;0.10;;;14.50;1.00;;;;;;4842157;29;20077;-37
2022/12/08 09:06:29;;;;;;;2.45;0.98;;;14.60;1.00;;;;;;4842507;29;20098;-39
2022/12/08 09:08:56;;;;;;;1.20;0.38;;;14.50;1.00;;;;;;4842507;29;20071;-39
2022/12/08 09:11:22;;;;;;;0.65;0.40;;;14.50;1.00;;;;;;4842294;29;20144;-39
2022/12/08 09:13:51;;;;;;;2.05;0.35;;;14.60;1.00;;;;;;4842136;29;20049;-39
2022/12/08 09:16:18;;;;;;;1.02;0.30;;;14.50;1.00;;;;;;4842088;29;20056;-39
2022/12/08 09:18:47;;;;;;;2.33;0.40;;;14.50;1.00;;;;;;4842378;29;20117;-39
2022/12/08 09:21:19;;;;;;;1.35;0.20;;;14.50;1.00;;;;;;4842451;29;20425;-39
2022/12/08 09:23:45;;;;;;;2.17;0.30;;;14.50;1.00;;;;;;4842153;29;20073;-39
2022/12/08 09:26:12;;;;;;;2.47;0.60;;;14.50;1.00;;;;;;4842159;29;20057;-39
2022/12/08 09:28:39;;;;;;;1.58;0.57;;;14.50;1.00;;;;;;4842125;29;20418;-39
2022/12/08 09:31:05;;;;;;;1.45;0.40;;;14.50;1.00;;;;;;4840807;29;20148;-39
2022/12/08 09:33:32;;;;;;;1.42;0.80;;;14.50;1.00;;;;;;4841812;29;20520;-39
2022/12/08 09:36:03;;;;;;;0.98;0.22;;;14.50;1.00;;;;;;4841814;29;20046;-39
2022/12/08 09:38:31;;;;;;;4.20;0.32;;;14.40;1.00;;;;;;4841991;29;20095;-39
2022/12/08 09:40:59;;;;;;;1.85;0.40;;;14.40;1.00;;;;;;4841916;29;20518;-39
2022/12/08 09:43:46;;;;;;;0.98;0.30;;;14.40;1.00;;;;;;4841558;29;20554;-39
2022/12/08 09:46:16;;;;;;;0.57;0.20;;;14.40;1.00;;;;;;4841786;29;20069;-40
2022/12/08 09:48:54;;;;;;;0.98;0.30;;;14.40;1.00;;;;;;4841918;29;20054;-39
2022/12/08 09:51:34;;;;;;;1.40;0.20;;;14.40;1.00;;;;;;4841809;29;20049;-39
2022/12/08 09:54:34;;;;;;;1.38;0.25;;;14.40;1.00;;;;;;4841447;29;20053;-40
2022/12/08 09:57:09;;;;;;;0.20;0.10;;;14.40;1.00;;;;;;4841544;29;20407;-39
2022/12/08 09:59:36;;;;;;;1.02;0.25;;;14.40;1.00;;;;;;4841834;29;20133;-39
2022/12/08 10:02:18;;;;;;;1.00;0.30;;;14.40;1.00;;;;;;4841293;29;20085;-38
2022/12/08 10:04:45;;;;;;;0.52;0.20;;;14.40;1.00;;;;;;4840284;29;20053;-39
2022/12/08 10:07:40;;;;;;;0.88;0.30;;;14.40;1.00;;;;;;4841622;29;20057;-38
2022/12/08 10:10:21;;;;;;;6.05;0.50;;;14.40;1.00;;;;;;4841015;29;20121;-38
2022/12/08 10:12:59;;;;;;;0.93;0.32;;;14.40;1.00;;;;;;4841086;29;20411;-37
2022/12/08 10:16:11;;;;;;;2.67;0.40;;;14.30;1.00;;;;;;4841312;29;20137;-38
2022/12/08 10:19:09;;;;;;;0.43;0.10;;;14.30;1.00;;;;;;4841265;29;20050;-38
2022/12/08 10:21:38;;;;;;;0.47;0.13;;;14.30;1.00;;;;;;4841292;29;20553;-39
2022/12/08 10:24:22;;;;;;;1.08;0.30;;;14.30;1.00;;;;;;4841017;29;20558;-38
2022/12/08 10:26:49;;;;;;;3.40;0.43;;;14.40;1.00;;;;;;4841269;29;20425;-39
2022/12/08 10:29:16;;;;;;;0.77;0.20;;;14.30;1.00;;;;;;4841136;29;20050;-38
2022/12/08 10:31:43;;;;;;;0.85;0.25;;;14.30;1.00;;;;;;4841236;29;20528;-38
2022/12/08 10:34:28;;;;;;;1.60;0.22;;;14.30;1.00;;;;;;4840871;29;20092;-38
2022/12/08 10:36:57;;;;;;;1.23;0.43;;;14.30;1.00;;;;;;4841213;29;20087;-39
2022/12/08 10:39:32;;;;;;;2.15;0.40;;;14.30;1.00;;;;;;4841211;29;20077;-38
2022/12/08 10:42:21;;;;;;;1.60;0.25;;;14.30;1.00;;;;;;4841090;29;20132;-38
2022/12/08 10:44:48;;;;;;;1.95;0.43;;;14.30;1.00;;;;;;4840952;29;20050;-38
2022/12/08 10:47:15;;;;;;;0.85;0.35;;;14.30;1.00;;;;;;4841187;29;20046;-38
2022/12/08 10:49:41;;;;;;;3.35;0.28;;;14.30;1.00;;;;;;4841167;29;20482;-38
2022/12/08 10:52:24;;;;;;;1.95;0.15;;;14.40;1.00;;;;;;4840870;29;20463;-39
2022/12/08 10:54:53;;;;;;;2.70;0.35;;;14.30;1.00;;;;;;4840899;29;20504;-38
2022/12/08 10:57:22;;;;;;;0.80;0.22;;;14.30;1.00;;;;;;4840957;29;20586;-39
2022/12/08 10:59:49;;;;;;;3.42;0.30;;;14.30;1.00;;;;;;4840994;29;20504;-39
2022/12/08 11:02:19;;;;;;;2.00;0.30;;;14.30;1.00;;;;;;4840857;29;20046;-39
2022/12/08 11:04:46;;;;;;;0.52;0.20;;;14.30;1.00;;;;;;4840858;29;20551;-39
2022/12/08 11:07:21;;;;;;;0.75;0.13;;;14.30;1.00;;;;;;4840871;29;20494;-39
2022/12/08 11:09:54;;;;;;;1.40;0.17;;;14.30;1.00;;;;;;4840973;29;20443;-39
2022/12/08 11:12:22;;;;;;;2.03;0.52;;;14.30;1.00;;;;;;4840938;29;20114;-39
2022/12/08 11:15:01;;;;;;;1.67;0.20;;;14.30;1.00;;;;;;4840742;29;20038;-39
2022/12/08 11:17:38;;;;;;;0.98;0.30;;;14.30;1.00;;;;;;4840825;29;20416;-38
2022/12/08 11:20:08;;;;;;;1.15;0.25;;;14.30;1.00;;;;;;4840879;29;20050;-38
2022/12/08 11:22:39;;;;;;;0.57;0.20;;;14.30;1.00;;;;;;4843331;29;20049;-38
2022/12/08 11:25:06;;;;;;;4.07;0.47;;;14.30;1.00;;;;;;4844112;29;20062;-40
2022/12/08 11:27:35;;;;;;;1.25;0.40;;;14.30;1.00;;;;;;4844120;29;20080;-39
2022/12/08 11:30:26;;;;;;;0.85;0.20;;;14.30;1.00;;;;;;4844376;29;20045;-39
2022/12/08 11:32:59;;;;;;;0.98;0.30;;;14.30;1.00;;;;;;4843852;29;20049;-39
2022/12/08 11:35:28;;;;;;;;;;;14.30;1.00;;;;;;4844583;29;20042;-39
2022/12/08 11:38:10;;;;;;;0.50;0.20;;;14.30;1.00;;;;;;4843948;29;20370;-39
2022/12/08 11:40:54;;;;;;;0.43;0.20;;;14.30;1.00;;;;;;4844127;29;20129;-40
2022/12/08 11:43:37;;;;;;;4.47;0.50;;;14.30;1.00;;;;;;4843849;29;20415;-40
2022/12/08 11:46:27;;;;;;;0.80;0.20;;;14.30;1.00;;;;;;4843995;29;20064;-40
2022/12/08 11:49:03;;;;;;;1.65;0.40;;;14.30;1.00;;;;;;4843893;29;20318;-39
2022/12/08 11:51:42;;;;;;;0.93;0.30;;;14.30;1.00;;;;;;4843948;29;20509;-39
2022/12/08 11:54:23;;;;;;;1.63;0.50;;;14.30;1.00;;;;;;4843395;29;20050;-39
2022/12/08 11:56:56;;;;;;;1.05;0.20;;;14.30;1.00;;;;;;4843648;29;20056;-39
2022/12/08 11:59:48;;;;;;;0.65;0.20;;;14.30;1.00;;;;;;4843838;29;20057;-39
2022/12/08 12:02:27;;;;;;;1.33;0.20;;;14.30;1.00;;;;;;4843528;29;20045;-40
2022/12/08 12:05:07;;;;;;;1.45;0.40;;;14.30;1.00;;;;;;4843642;29;20050;-39
2022/12/08 12:07:55;;;;;;;2.03;0.22;;;14.30;1.00;;;;;;4843775;29;20049;-38
2022/12/08 12:10:37;;;;;;;2.25;0.15;;;14.30;1.00;;;;;;4843442;29;20046;-39
2022/12/08 12:13:44;;;;;;;2.58;0.30;;;14.30;1.00;;;;;;4843248;29;20137;-39
2022/12/08 12:16:25;;;;;;;3.20;0.28;;;14.30;1.00;;;;;;4843220;29;20042;-40
2022/12/08 12:19:01;;;;;;;1.75;0.60;;;14.30;1.00;;;;;;4843435;29;20585;-39
2022/12/08 12:21:35;;;;;;;1.70;0.35;;;14.20;1.00;;;;;;4843414;29;20050;-40
2022/12/08 12:24:09;;;;;;;0.40;0.20;;;14.20;1.00;;;;;;4842884;29;20528;-40
2022/12/08 12:26:47;;;;;;;1.73;0.30;;;14.20;1.00;;;;;;4842404;29;20459;-38
2022/12/08 12:29:19;;;;;;;2.47;0.30;;;14.20;1.00;;;;;;4843296;29;20537;-39
2022/12/08 12:31:54;;;;;;;0.90;0.20;;;14.20;1.00;;;;;;4842879;29;20054;-39
2022/12/08 12:34:48;;;;;;;1.30;0.22;;;14.20;1.00;;;;;;4843305;29;20125;-39
2022/12/08 12:37:20;;;;;;;0.50;0.22;;;14.20;1.00;;;;;;4842165;29;20081;-39
2022/12/08 12:40:04;;;;;;;1.17;0.28;;;14.20;1.00;;;;;;4842907;29;20093;-39
2022/12/08 12:42:43;;;;;;;4.00;0.63;;;14.20;1.00;;;;;;4842751;29;20054;-39
2022/12/08 12:45:16;;;;;;;1.60;0.47;;;14.20;1.00;;;;;;4843009;29;20077;-39
2022/12/08 12:48:03;;;;;;;1.40;0.30;;;14.20;1.00;;;;;;4843354;29;20562;-39
2022/12/08 12:50:32;;;;;;;7.70;0.75;;;14.20;1.00;;;;;;4834166;24;20149;-36
2022/12/08 12:53:16;;;;;;;3.20;0.40;;;14.20;1.00;;;;;;4825284;29;20069;-36
2022/12/08 12:55:55;;;;;;;;;;;14.10;1.00;;;;;;4833247;29;20050;-36
2022/12/08 12:58:28;;;;;;;0.73;0.30;;;14.10;1.00;;;;;;4842700;29;20027;-36
2022/12/08 13:01:10;;;;;;;1.98;0.30;;;14.00;1.00;;;;;;4835437;29;20109;-37
2022/12/08 13:03:39;;;;;;;1.98;0.32;;;14.00;1.00;;;;;;4825707;29;20042;-36
2022/12/08 13:06:06;;;;;;;4.68;0.43;;;14.00;1.00;;;;;;4833821;29;20050;-37
2022/12/08 13:08:49;;;;;;;3.05;0.32;;;14.00;1.00;;;;;;4826205;29;20050;-36
2022/12/08 13:11:16;;;;;;;3.30;0.52;;;14.10;1.00;;;;;;4831498;29;20041;-37
2022/12/08 13:14:21;;;;;;;1.85;0.35;;;14.10;1.00;;;;;;4832660;29;20061;-37
2022/12/08 13:16:53;;;;;;;1.65;0.40;;;14.20;1.00;;;;;;4830692;29;20498;-35
2022/12/08 13:19:21;;;;;;;4.22;0.40;;;14.20;1.00;;;;;;4825145;29;20102;-36
2022/12/08 13:21:48;;;;;;;5.28;0.70;;;14.30;1.00;;;;;;4815496;29;20126;-36
2022/12/08 13:24:23;;;;;;;31.80;0.98;;;14.50;1.00;;;;;;4830497;29;20050;-36
2022/12/08 13:27:02;;;;;;;3.80;0.70;;;14.60;1.00;;;;;;4831199;29;20046;-35